Time;durP1;ratioP1;P1;durP2;ratioP2;P2;SDS_P1;SDS_P2;PMS_P1;PMS_P2;Temp;Humidity;BMP_temperature;BMP_pressure;BME280_temperature;BME280_humidity;BME280_pressure;Samples;Min_cycle;Max_cycle;Signal;HPM_P1;HPM_P2
2022/07/09 00:00:12;;;;;;;10.15;5.00;;;19.90;78.20;;;;;;5032256;28;20061;-77
2022/07/09 00:02:39;;;;;;;9.80;4.55;;;19.80;78.50;;;;;;5015432;28;20386;-77
2022/07/09 00:05:07;;;;;;;8.00;3.53;;;19.90;78.60;;;;;;5016143;28;20420;-76
2022/07/09 00:07:42;;;;;;;6.60;2.83;;;19.80;79.00;;;;;;5016465;28;20115;-76
2022/07/09 00:10:10;;;;;;;5.07;1.30;;;19.80;78.90;;;;;;5016446;28;20042;-76
2022/07/09 00:12:38;;;;;;;4.47;1.77;;;19.80;79.30;;;;;;5015884;28;20354;-76
2022/07/09 00:15:06;;;;;;;1.88;1.05;;;19.80;79.40;;;;;;5035305;28;20039;-76
2022/07/09 00:17:33;;;;;;;2.70;1.15;;;19.70;79.60;;;;;;5019586;28;20457;-76
2022/07/09 00:20:04;;;;;;;1.55;0.75;;;19.70;80.00;;;;;;5009823;28;20538;-76
2022/07/09 00:22:32;;;;;;;3.58;0.95;;;19.70;80.10;;;;;;5017972;28;20046;-77
2022/07/09 00:25:00;;;;;;;2.60;0.70;;;19.80;80.20;;;;;;5020746;28;20497;-76
2022/07/09 00:27:27;;;;;;;1.35;0.47;;;19.60;80.40;;;;;;5021968;28;20073;-76
2022/07/09 00:29:54;;;;;;;8.05;0.90;;;19.60;80.80;;;;;;5021703;28;20072;-77
2022/07/09 00:32:21;;;;;;;3.47;0.70;;;19.60;80.70;;;;;;5019465;28;20489;-76
2022/07/09 00:34:48;;;;;;;3.50;0.63;;;19.60;80.90;;;;;;5036147;28;20500;-77
2022/07/09 00:37:15;;;;;;;1.27;0.50;;;19.50;80.70;;;;;;5014388;28;20051;-76
2022/07/09 00:39:42;;;;;;;1.10;0.60;;;19.40;80.80;;;;;;5016267;28;20064;-77
2022/07/09 00:42:11;;;;;;;1.88;0.70;;;19.40;80.80;;;;;;5020863;28;20045;-76
2022/07/09 00:44:38;;;;;;;4.18;0.80;;;19.40;80.90;;;;;;5019264;28;20071;-76
2022/07/09 00:47:07;;;;;;;2.63;0.70;;;19.40;80.50;;;;;;5019982;28;20448;-77
2022/07/09 00:49:42;;;;;;;3.70;0.80;;;19.40;80.50;;;;;;5019857;28;20396;-77
2022/07/09 00:52:14;;;;;;;1.67;0.80;;;19.40;80.30;;;;;;5002701;28;20051;-76
2022/07/09 00:54:42;;;;;;;3.17;0.70;;;19.50;80.60;;;;;;5018585;28;20061;-77
2022/07/09 00:57:10;;;;;;;3.35;0.70;;;19.40;79.50;;;;;;5021503;28;20052;-78
2022/07/09 00:59:39;;;;;;;1.85;0.65;;;19.30;80.30;;;;;;5015784;28;20532;-76
2022/07/09 01:02:09;;;;;;;2.67;0.70;;;19.20;80.70;;;;;;5012849;28;20045;-77
2022/07/09 01:04:39;;;;;;;1.48;0.63;;;19.30;80.70;;;;;;5022916;28;20765;-76
2022/07/09 01:07:06;;;;;;;4.10;0.80;;;19.20;80.00;;;;;;5023706;28;20084;-76
2022/07/09 01:09:34;;;;;;;1.23;0.82;;;19.00;80.80;;;;;;5018029;28;20583;-77
2022/07/09 01:12:01;;;;;;;2.45;0.80;;;19.10;80.50;;;;;;5021185;28;20041;-77
2022/07/09 01:14:28;;;;;;;1.60;0.52;;;19.10;80.70;;;;;;5018814;28;20073;-77
2022/07/09 01:17:04;;;;;;;2.88;0.93;;;19.20;80.40;;;;;;5003300;28;20496;-76
2022/07/09 01:19:32;;;;;;;2.85;0.68;;;19.30;80.80;;;;;;5018690;28;20037;-76
2022/07/09 01:22:00;;;;;;;1.92;0.55;;;19.30;79.80;;;;;;5018697;28;20041;-77
2022/07/09 01:24:33;;;;;;;2.63;1.08;;;19.10;80.00;;;;;;5021685;28;20061;-76
2022/07/09 01:27:01;;;;;;;2.30;0.75;;;19.00;80.20;;;;;;5019452;28;20095;-76
2022/07/09 01:29:28;;;;;;;1.52;0.77;;;19.00;80.60;;;;;;5017326;28;20128;-77
2022/07/09 01:31:55;;;;;;;2.47;0.70;;;18.90;80.70;;;;;;5020916;28;20056;-76
2022/07/09 01:34:22;;;;;;;2.28;0.77;;;19.00;80.60;;;;;;5019668;28;20042;-76
2022/07/09 01:36:49;;;;;;;2.58;0.65;;;19.00;80.30;;;;;;5003171;28;20045;-77
2022/07/09 01:39:16;;;;;;;2.40;0.77;;;19.10;80.10;;;;;;5022176;28;20069;-78
2022/07/09 01:41:43;;;;;;;2.40;0.88;;;19.10;79.80;;;;;;5017022;28;20049;-76
2022/07/09 01:44:10;;;;;;;2.22;0.60;;;19.10;79.90;;;;;;5028506;28;20183;-76
2022/07/09 01:46:37;;;;;;;2.78;1.05;;;19.10;79.70;;;;;;5021185;28;20436;-77
2022/07/09 01:49:05;;;;;;;2.35;1.02;;;19.10;79.90;;;;;;5021569;28;20038;-77
2022/07/09 01:51:35;;;;;;;2.38;0.80;;;18.90;79.90;;;;;;5018252;28;20381;-76
2022/07/09 01:54:02;;;;;;;2.42;0.90;;;18.70;80.30;;;;;;5019022;28;20060;-77
2022/07/09 01:56:30;;;;;;;3.22;0.60;;;18.80;80.50;;;;;;5019386;28;20488;-76
2022/07/09 01:58:57;;;;;;;4.13;0.60;;;18.80;80.30;;;;;;5033446;28;20100;-77
2022/07/09 02:01:24;;;;;;;1.52;0.73;;;18.80;80.20;;;;;;5014158;28;20047;-76
2022/07/09 02:03:51;;;;;;;2.58;0.75;;;18.80;80.00;;;;;;5014769;28;20084;-77
2022/07/09 02:06:18;;;;;;;2.35;1.25;;;18.70;80.10;;;;;;5021070;28;20134;-77
2022/07/09 02:08:45;;;;;;;2.92;0.80;;;18.60;80.40;;;;;;5018226;28;20504;-77
2022/07/09 02:11:13;;;;;;;1.90;0.60;;;18.70;80.80;;;;;;4999989;28;20081;-76
2022/07/09 02:13:40;;;;;;;4.35;0.68;;;18.70;80.40;;;;;;5020041;28;20485;-77
2022/07/09 02:16:08;;;;;;;1.15;0.52;;;18.70;80.60;;;;;;5002142;28;20587;-77
2022/07/09 02:18:35;;;;;;;2.08;0.60;;;18.70;80.50;;;;;;5019501;28;20046;-77
2022/07/09 02:21:05;;;;;;;6.95;1.38;;;18.50;80.70;;;;;;5015933;28;20053;-77
2022/07/09 02:23:32;;;;;;;2.78;0.60;;;18.50;81.50;;;;;;5036118;28;20096;-76
2022/07/09 02:25:59;;;;;;;2.80;0.70;;;18.40;81.50;;;;;;5020220;28;20055;-77
2022/07/09 02:28:26;;;;;;;3.25;0.70;;;18.30;81.90;;;;;;5017434;28;20049;-77
2022/07/09 02:30:54;;;;;;;5.35;0.88;;;18.40;82.10;;;;;;5019965;28;20038;-77
2022/07/09 02:33:21;;;;;;;3.75;0.70;;;18.50;81.70;;;;;;5012359;28;20727;-76
2022/07/09 02:35:55;;;;;;;3.10;0.70;;;18.40;81.90;;;;;;5017966;28;20053;-77
2022/07/09 02:38:22;;;;;;;4.72;1.33;;;18.40;81.70;;;;;;5010788;28;20567;-77
2022/07/09 02:40:49;;;;;;;4.40;1.17;;;18.50;81.50;;;;;;5015231;28;20060;-77
2022/07/09 02:43:16;;;;;;;3.05;0.70;;;18.40;81.70;;;;;;5016209;28;20404;-76
2022/07/09 02:45:43;;;;;;;1.75;0.60;;;18.40;81.80;;;;;;5017474;28;20041;-77
2022/07/09 02:48:11;;;;;;;2.78;1.23;;;18.40;81.60;;;;;;5021493;28;20042;-76
2022/07/09 02:50:38;;;;;;;2.28;0.70;;;18.50;81.70;;;;;;5018687;28;20436;-77
2022/07/09 02:53:05;;;;;;;3.03;1.15;;;18.50;81.50;;;;;;5017720;28;20050;-76
2022/07/09 02:55:32;;;;;;;3.60;0.60;;;18.30;81.80;;;;;;5000258;28;20045;-76
2022/07/09 02:57:59;;;;;;;3.42;0.80;;;18.40;81.90;;;;;;5019008;28;20129;-77
2022/07/09 03:00:26;;;;;;;2.53;0.80;;;18.50;81.40;;;;;;5018355;28;20057;-77
2022/07/09 03:02:53;;;;;;;2.80;0.70;;;18.50;81.50;;;;;;5015045;28;20045;-76
2022/07/09 03:05:20;;;;;;;2.55;0.75;;;18.40;81.50;;;;;;5018305;28;20048;-76
2022/07/09 03:07:47;;;;;;;4.35;0.77;;;18.50;81.60;;;;;;5032790;28;20046;-76
2022/07/09 03:10:15;;;;;;;3.90;0.90;;;18.50;81.20;;;;;;5015340;28;20050;-77
2022/07/09 03:12:42;;;;;;;2.42;0.57;;;18.50;81.40;;;;;;5014409;28;20179;-76
2022/07/09 03:15:09;;;;;;;6.32;1.20;;;18.60;81.50;;;;;;5018294;28;20038;-76
2022/07/09 03:17:36;;;;;;;3.17;0.60;;;18.60;81.30;;;;;;5016460;28;20037;-76
2022/07/09 03:20:04;;;;;;;4.72;0.80;;;18.60;81.40;;;;;;5017284;28;20194;-76
2022/07/09 03:22:31;;;;;;;3.25;0.80;;;18.60;81.80;;;;;;5032511;28;20044;-76
2022/07/09 03:24:58;;;;;;;2.47;0.57;;;18.60;82.20;;;;;;5019929;28;20049;-77
2022/07/09 03:27:25;;;;;;;3.58;0.80;;;18.70;81.70;;;;;;5017637;28;20045;-76
2022/07/09 03:29:52;;;;;;;3.70;0.63;;;18.70;82.30;;;;;;5018647;28;20378;-76
2022/07/09 03:32:19;;;;;;;3.90;0.95;;;18.70;81.90;;;;;;5018176;28;20046;-76
2022/07/09 03:34:47;;;;;;;3.45;1.00;;;18.60;81.40;;;;;;5011388;28;20045;-77
2022/07/09 03:37:14;;;;;;;4.00;1.10;;;18.60;81.70;;;;;;5019276;28;20087;-76
2022/07/09 03:39:41;;;;;;;5.53;1.05;;;18.70;81.90;;;;;;5002414;28;20052;-76
2022/07/09 03:42:08;;;;;;;4.22;0.63;;;18.70;81.80;;;;;;5016648;28;20128;-77
2022/07/09 03:44:35;;;;;;;4.40;0.90;;;18.60;81.70;;;;;;5033368;28;20045;-76
2022/07/09 03:47:03;;;;;;;2.13;0.80;;;18.60;81.50;;;;;;5012219;28;20088;-77
2022/07/09 03:49:30;;;;;;;2.67;0.65;;;18.60;81.50;;;;;;5015353;28;20124;-77
2022/07/09 03:51:57;;;;;;;1.20;0.57;;;18.60;81.40;;;;;;5019372;28;20100;-77
2022/07/09 03:54:41;;;;;;;5.40;0.70;;;18.60;81.20;;;;;;5000762;28;20042;-76
2022/07/09 03:57:08;;;;;;;4.43;0.95;;;18.60;81.20;;;;;;5020943;28;20034;-77
2022/07/09 03:59:35;;;;;;;3.63;0.75;;;18.60;80.80;;;;;;5010801;28;20056;-77
2022/07/09 04:02:04;;;;;;;3.00;0.80;;;18.70;81.10;;;;;;5020409;28;20038;-77
2022/07/09 04:04:38;;;;;;;2.15;0.60;;;18.70;80.80;;;;;;5015873;28;20045;-77
2022/07/09 04:07:05;;;;;;;2.40;0.65;;;18.70;81.00;;;;;;4995440;28;20156;-77
2022/07/09 04:09:32;;;;;;;3.83;1.00;;;18.80;80.50;;;;;;5018396;28;20461;-77
2022/07/09 04:11:59;;;;;;;5.43;0.82;;;18.80;80.40;;;;;;5022941;28;20046;-76
2022/07/09 04:14:26;;;;;;;5.65;1.00;;;18.60;80.80;;;;;;5025809;28;20064;-76
2022/07/09 04:16:53;;;;;;;2.25;0.52;;;18.60;80.20;;;;;;5012674;28;20044;-76
2022/07/09 04:19:21;;;;;;;2.00;0.60;;;18.60;80.70;;;;;;5022256;28;20050;-76
2022/07/09 04:21:48;;;;;;;4.47;1.20;;;18.70;80.50;;;;;;5018957;28;20058;-77
2022/07/09 04:24:15;;;;;;;3.30;0.63;;;18.70;80.50;;;;;;5019681;28;20517;-77
2022/07/09 04:26:43;;;;;;;2.65;0.60;;;18.70;80.50;;;;;;5015576;28;20034;-77
2022/07/09 04:29:10;;;;;;;1.58;0.80;;;18.50;80.30;;;;;;5020168;28;20404;-77
2022/07/09 04:31:37;;;;;;;2.70;0.70;;;18.60;80.20;;;;;;5023374;28;20037;-76
2022/07/09 04:34:05;;;;;;;2.45;0.90;;;18.70;80.50;;;;;;5034486;28;20058;-77
2022/07/09 04:36:32;;;;;;;3.83;0.70;;;18.70;80.40;;;;;;5021941;28;20053;-76
2022/07/09 04:38:59;;;;;;;2.53;0.80;;;18.60;80.40;;;;;;5016290;28;20041;-78
2022/07/09 04:41:26;;;;;;;2.25;0.82;;;18.80;80.20;;;;;;5019233;28;20519;-77
2022/07/09 04:43:53;;;;;;;2.40;0.80;;;18.70;80.40;;;;;;5023514;28;20037;-77
2022/07/09 04:46:22;;;;;;;3.92;0.77;;;18.60;80.10;;;;;;5004902;28;20056;-77
2022/07/09 04:48:49;;;;;;;3.55;1.33;;;18.60;80.50;;;;;;5019033;28;20033;-76
2022/07/09 04:51:16;;;;;;;2.88;1.25;;;18.60;81.00;;;;;;5020983;28;20037;-76
2022/07/09 04:53:43;;;;;;;1.75;0.70;;;18.70;80.80;;;;;;5018728;28;20485;-77
2022/07/09 04:56:10;;;;;;;1.42;0.70;;;18.70;80.70;;;;;;4996323;28;20041;-76
2022/07/09 04:58:37;;;;;;;1.48;0.85;;;18.80;80.00;;;;;;5018892;28;20048;-76
2022/07/09 05:01:05;;;;;;;3.90;0.80;;;18.90;80.40;;;;;;5008151;28;22349;-78
2022/07/09 05:03:32;;;;;;;4.47;0.88;;;19.00;78.80;;;;;;4986902;28;20053;-76
2022/07/09 05:05:59;;;;;;;4.05;1.00;;;19.30;78.40;;;;;;4991940;28;20057;-77
2022/07/09 05:08:26;;;;;;;2.45;1.00;;;19.50;77.80;;;;;;4985409;28;20050;-77
2022/07/09 05:10:53;;;;;;;3.42;1.20;;;19.60;77.30;;;;;;4987204;28;22421;-76
2022/07/09 05:13:20;;;;;;;2.20;0.68;;;19.50;76.80;;;;;;4989592;28;20038;-77
2022/07/09 05:15:47;;;;;;;3.28;1.13;;;19.40;76.70;;;;;;4986887;28;20152;-76
2022/07/09 05:18:14;;;;;;;2.88;0.98;;;19.40;77.40;;;;;;4988933;28;20041;-76
2022/07/09 05:20:42;;;;;;;4.00;1.00;;;19.30;76.80;;;;;;4987366;28;20091;-77
2022/07/09 05:23:09;;;;;;;1.67;0.90;;;19.30;76.70;;;;;;4985044;28;20057;-77
2022/07/09 05:25:36;;;;;;;2.97;1.08;;;19.40;77.00;;;;;;4985754;28;21717;-77
2022/07/09 05:28:03;;;;;;;2.85;1.27;;;19.30;76.70;;;;;;4987387;28;20049;-76
2022/07/09 05:30:36;;;;;;;1.67;1.05;;;19.20;77.00;;;;;;4983228;28;20497;-77
2022/07/09 05:33:05;;;;;;;2.90;1.30;;;19.20;77.30;;;;;;4983271;28;20041;-76
2022/07/09 05:35:32;;;;;;;4.30;1.30;;;19.30;77.80;;;;;;4975497;28;20057;-76
2022/07/09 05:37:59;;;;;;;3.92;1.00;;;19.30;77.20;;;;;;4975454;28;20060;-76
2022/07/09 05:40:27;;;;;;;4.20;1.10;;;19.10;77.00;;;;;;4988794;28;20072;-76
2022/07/09 05:42:54;;;;;;;2.92;0.70;;;19.10;77.00;;;;;;4969457;28;20175;-76
2022/07/09 05:45:21;;;;;;;4.90;1.17;;;19.10;77.40;;;;;;4982628;28;20319;-76
2022/07/09 05:47:48;;;;;;;2.90;1.17;;;19.10;77.20;;;;;;4983582;28;20041;-76
2022/07/09 05:50:15;;;;;;;2.17;1.08;;;19.00;77.90;;;;;;4982840;28;20495;-76
2022/07/09 05:52:42;;;;;;;3.92;1.38;;;19.00;78.00;;;;;;4989400;28;20053;-75
2022/07/09 05:55:09;;;;;;;4.82;0.90;;;19.10;78.00;;;;;;4985061;28;20679;-76
2022/07/09 05:57:37;;;;;;;5.60;1.10;;;19.10;78.00;;;;;;4963754;28;20045;-76
2022/07/09 06:00:07;;;;;;;2.40;0.95;;;19.20;77.90;;;;;;4979077;28;20815;-76
2022/07/09 06:02:34;;;;;;;3.08;1.08;;;19.30;77.90;;;;;;4958515;28;20050;-76
2022/07/09 06:05:01;;;;;;;4.78;1.10;;;19.20;77.40;;;;;;4983628;28;20096;-76
2022/07/09 06:07:28;;;;;;;2.90;1.25;;;19.80;77.90;;;;;;4982999;28;20050;-76
2022/07/09 06:09:56;;;;;;;4.03;1.05;;;19.90;76.80;;;;;;4972694;28;20662;-76
2022/07/09 06:12:23;;;;;;;3.60;1.05;;;20.30;74.80;;;;;;4983715;28;22263;-76
2022/07/09 06:14:50;;;;;;;1.88;0.80;;;20.70;73.70;;;;;;4983431;28;20060;-76
2022/07/09 06:17:17;;;;;;;2.65;1.15;;;20.70;72.40;;;;;;4985173;28;20079;-76
2022/07/09 06:19:44;;;;;;;5.03;1.10;;;20.90;73.00;;;;;;4982572;28;20717;-76
2022/07/09 06:22:11;;;;;;;3.85;1.15;;;20.90;72.20;;;;;;4996527;28;20056;-76
2022/07/09 06:24:38;;;;;;;3.30;1.10;;;21.20;72.30;;;;;;4976273;28;20053;-77
2022/07/09 06:27:05;;;;;;;4.30;0.93;;;21.10;71.10;;;;;;4990757;28;21968;-76
2022/07/09 06:29:32;;;;;;;2.28;0.93;;;21.30;71.60;;;;;;4971754;28;20049;-76
2022/07/09 06:32:00;;;;;;;2.28;0.85;;;21.70;71.40;;;;;;4970245;28;22327;-76
2022/07/09 06:34:28;;;;;;;3.17;1.20;;;21.60;68.80;;;;;;4986184;28;20171;-77
2022/07/09 06:36:55;;;;;;;2.08;0.90;;;21.90;70.10;;;;;;4987965;28;20049;-76
2022/07/09 06:40:04;;;;;;;5.10;0.93;;;21.90;68.30;;;;;;4988774;28;20056;-76
2022/07/09 06:42:13;;;;;;;0.95;0.70;;;22.20;68.30;;;;;;4978718;28;20069;-76
2022/07/09 06:44:44;;;;;;;3.10;0.98;;;22.30;67.10;;;;;;4998094;28;20068;-76
2022/07/09 06:47:13;;;;;;;4.32;1.00;;;22.20;66.90;;;;;;4983084;28;20378;-76
2022/07/09 06:49:41;;;;;;;3.20;1.10;;;22.10;66.80;;;;;;4971508;28;20045;-76
2022/07/09 06:52:08;;;;;;;4.28;0.90;;;22.40;66.90;;;;;;4986455;28;20051;-76
2022/07/09 06:54:35;;;;;;;1.33;0.75;;;22.40;66.20;;;;;;4973246;28;22051;-76
2022/07/09 06:57:03;;;;;;;3.03;0.90;;;22.30;66.30;;;;;;4984383;28;20045;-76
2022/07/09 06:59:33;;;;;;;4.70;1.73;;;22.40;65.90;;;;;;4982218;28;21115;-77
2022/07/09 07:02:00;;;;;;;3.47;0.90;;;22.40;65.10;;;;;;4967241;28;21843;-77
2022/07/09 07:04:27;;;;;;;8.43;1.45;;;22.50;66.10;;;;;;4982881;28;20080;-76
2022/07/09 07:06:54;;;;;;;2.88;0.93;;;22.70;66.30;;;;;;4981043;28;20049;-76
2022/07/09 07:09:21;;;;;;;1.90;0.85;;;22.90;65.80;;;;;;4979095;28;20164;-76
2022/07/09 07:11:49;;;;;;;3.65;0.82;;;23.00;65.00;;;;;;4982359;28;20041;-76
2022/07/09 07:14:16;;;;;;;2.33;1.00;;;23.20;64.50;;;;;;4968901;28;22129;-77
2022/07/09 07:16:44;;;;;;;5.63;1.35;;;23.10;64.20;;;;;;4972118;28;21122;-76
2022/07/09 07:19:12;;;;;;;1.58;1.05;;;23.30;64.60;;;;;;4987522;28;20045;-77
2022/07/09 07:21:40;;;;;;;2.97;0.93;;;23.10;63.60;;;;;;4982555;28;20132;-76
2022/07/09 07:24:07;;;;;;;2.05;0.82;;;23.20;64.10;;;;;;4994383;28;20885;-76
2022/07/09 07:26:35;;;;;;;2.28;1.10;;;23.10;64.00;;;;;;4984851;28;20677;-76
2022/07/09 07:29:02;;;;;;;1.38;0.90;;;23.30;63.30;;;;;;4969023;28;20045;-76
2022/07/09 07:31:38;;;;;;;2.10;0.95;;;23.40;63.60;;;;;;4964031;28;20077;-76
2022/07/09 07:34:05;;;;;;;2.75;0.80;;;23.60;63.60;;;;;;4985078;28;20057;-77
2022/07/09 07:36:34;;;;;;;3.72;1.15;;;23.20;62.60;;;;;;4986229;28;20724;-77
2022/07/09 07:39:02;;;;;;;1.88;0.93;;;23.50;63.60;;;;;;4969038;28;20668;-77
2022/07/09 07:41:29;;;;;;;1.50;0.90;;;23.50;62.30;;;;;;5001085;28;20057;-77
2022/07/09 07:43:56;;;;;;;4.25;0.70;;;23.70;63.10;;;;;;4986381;28;20062;-77
2022/07/09 07:46:23;;;;;;;2.05;1.05;;;23.90;62.70;;;;;;4990632;28;20064;-76
2022/07/09 07:48:50;;;;;;;1.40;0.68;;;23.80;62.50;;;;;;4987758;28;20132;-76
2022/07/09 07:51:17;;;;;;;1.05;0.63;;;24.00;62.30;;;;;;4972853;28;20516;-76
2022/07/09 07:53:44;;;;;;;2.13;0.77;;;24.10;62.50;;;;;;4991653;28;20037;-77
2022/07/09 07:56:11;;;;;;;2.58;1.20;;;23.90;61.40;;;;;;4973509;28;20551;-76
2022/07/09 07:58:39;;;;;;;2.38;1.00;;;23.90;62.40;;;;;;4984830;28;20046;-76
2022/07/09 08:01:06;;;;;;;1.83;1.17;;;23.80;61.20;;;;;;4969720;28;20037;-77
2022/07/09 08:03:33;;;;;;;4.05;1.10;;;23.90;61.30;;;;;;4983552;28;20126;-76
2022/07/09 08:06:00;;;;;;;2.45;1.60;;;23.80;61.60;;;;;;4986700;28;20200;-76
2022/07/09 08:08:28;;;;;;;3.20;0.88;;;23.80;62.70;;;;;;4973287;28;20080;-77
2022/07/09 08:10:55;;;;;;;2.03;0.80;;;24.20;61.70;;;;;;4990631;28;20037;-76
2022/07/09 08:13:22;;;;;;;2.65;0.95;;;24.30;61.60;;;;;;4966090;28;20041;-77
2022/07/09 08:15:49;;;;;;;1.10;0.73;;;24.20;60.10;;;;;;4968361;28;20826;-76
2022/07/09 08:18:16;;;;;;;2.58;0.93;;;24.20;61.40;;;;;;4984593;28;20054;-76
2022/07/09 08:20:43;;;;;;;1.88;0.95;;;24.30;61.00;;;;;;4977535;28;20062;-77
2022/07/09 08:23:10;;;;;;;2.17;1.17;;;24.20;60.90;;;;;;4969128;28;20057;-76
2022/07/09 08:25:38;;;;;;;2.50;0.70;;;24.30;61.20;;;;;;4947428;28;20041;-76
2022/07/09 08:28:05;;;;;;;1.48;0.90;;;24.20;60.30;;;;;;4986202;28;20195;-76
2022/07/09 08:30:32;;;;;;;2.20;0.90;;;24.30;60.40;;;;;;4996457;28;22126;-75
2022/07/09 08:32:59;;;;;;;3.83;1.00;;;24.30;60.90;;;;;;4983852;28;20056;-76
2022/07/09 08:35:27;;;;;;;4.20;1.25;;;24.30;59.80;;;;;;4979594;28;20041;-77
2022/07/09 08:37:54;;;;;;;6.47;1.20;;;24.30;59.30;;;;;;4972615;28;20049;-76
2022/07/09 08:40:23;;;;;;;2.60;0.70;;;24.30;60.40;;;;;;4982841;28;20507;-77
2022/07/09 08:42:50;;;;;;;2.53;1.00;;;24.40;59.30;;;;;;4957223;28;20168;-76
2022/07/09 08:45:18;;;;;;;1.48;0.88;;;24.40;59.40;;;;;;4981303;28;22288;-77
2022/07/09 08:47:46;;;;;;;1.42;0.70;;;24.60;59.40;;;;;;4963678;28;22583;-76
2022/07/09 08:50:13;;;;;;;4.45;1.00;;;24.60;58.80;;;;;;4960347;28;20041;-75
2022/07/09 08:52:42;;;;;;;1.95;0.93;;;24.60;58.50;;;;;;4979033;28;20046;-77
2022/07/09 08:55:09;;;;;;;3.05;0.90;;;24.60;57.80;;;;;;4982658;28;20041;-77
2022/07/09 08:57:37;;;;;;;3.08;0.88;;;24.70;58.90;;;;;;4984742;28;20046;-77
2022/07/09 09:00:05;;;;;;;1.92;0.85;;;24.60;57.90;;;;;;4985828;28;20053;-76
2022/07/09 09:02:39;;;;;;;1.50;0.85;;;24.60;57.50;;;;;;4980200;28;20049;-77
2022/07/09 09:05:12;;;;;;;2.55;1.00;;;24.50;57.40;;;;;;4985127;28;20086;-77
2022/07/09 09:07:39;;;;;;;3.03;1.08;;;24.50;57.40;;;;;;4965821;28;20053;-77
2022/07/09 09:10:07;;;;;;;2.08;0.90;;;24.70;57.20;;;;;;4965252;28;20049;-77
2022/07/09 09:12:34;;;;;;;3.55;0.73;;;24.80;57.60;;;;;;4987636;28;20049;-76
2022/07/09 09:15:06;;;;;;;2.63;1.10;;;25.00;57.80;;;;;;4983896;28;20048;-76
2022/07/09 09:17:33;;;;;;;;;;;25.00;57.80;;;;;;4979090;28;20046;-76
2022/07/09 09:20:14;;;;;;;1.45;0.70;;;24.80;57.10;;;;;;4962055;28;19929;-76
2022/07/09 09:22:59;;;;;;;0.90;0.70;;;24.40;56.80;;;;;;4980366;28;22136;-77
2022/07/09 09:25:27;;;;;;;3.65;0.98;;;24.40;56.80;;;;;;4989146;28;20053;-76
2022/07/09 09:27:57;;;;;;;2.47;0.80;;;24.50;56.70;;;;;;4978067;28;20084;-77
2022/07/09 09:30:25;;;;;;;3.25;1.08;;;24.60;57.00;;;;;;4963348;28;20057;-76
2022/07/09 09:33:03;;;;;;;3.90;0.88;;;24.80;56.60;;;;;;4983111;28;20048;-77
2022/07/09 09:35:33;;;;;;;1.20;0.75;;;25.00;57.00;;;;;;4969134;28;20056;-76
2022/07/09 09:38:01;;;;;;;2.80;1.35;;;25.20;57.10;;;;;;4980383;28;20742;-76
2022/07/09 09:40:28;;;;;;;2.75;1.00;;;24.90;56.40;;;;;;4980667;28;20049;-76
2022/07/09 09:42:59;;;;;;;1.63;0.80;;;24.40;57.40;;;;;;4970901;28;20204;-76
2022/07/09 09:45:27;;;;;;;1.83;0.90;;;24.30;57.80;;;;;;4973807;28;20369;-77
2022/07/09 09:47:54;;;;;;;3.42;0.95;;;24.60;56.30;;;;;;4972760;28;20065;-77
2022/07/09 09:50:24;;;;;;;3.08;1.00;;;25.00;56.60;;;;;;4985156;28;20411;-77
2022/07/09 09:52:54;;;;;;;3.03;1.20;;;24.70;57.60;;;;;;4987330;28;20144;-76
2022/07/09 09:55:22;;;;;;;3.85;0.80;;;24.70;57.90;;;;;;4987558;28;20337;-76
2022/07/09 09:57:50;;;;;;;1.52;0.82;;;24.90;56.60;;;;;;4983257;28;20049;-76
2022/07/09 10:00:18;;;;;;;1.90;1.10;;;25.00;56.50;;;;;;4988962;28;20064;-76
2022/07/09 10:02:46;;;;;;;3.38;1.13;;;24.80;57.30;;;;;;4988018;28;20045;-76
2022/07/09 10:05:13;;;;;;;4.13;0.60;;;24.50;57.20;;;;;;4982148;28;20504;-76
2022/07/09 10:07:42;;;;;;;1.55;0.80;;;24.40;57.40;;;;;;4978648;28;20733;-76
2022/07/09 10:10:19;;;;;;;2.65;0.80;;;24.40;57.40;;;;;;4971145;28;20049;-76
2022/07/09 10:12:47;;;;;;;1.35;0.70;;;24.60;57.30;;;;;;4987098;28;20194;-76
2022/07/09 10:15:23;;;;;;;2.70;0.63;;;24.60;57.70;;;;;;4983836;28;20555;-76
2022/07/09 10:17:50;;;;;;;2.30;0.90;;;24.60;57.60;;;;;;4982613;28;20531;-76
2022/07/09 10:20:17;;;;;;;3.92;1.05;;;24.80;57.20;;;;;;4984552;28;20537;-75
2022/07/09 10:22:48;;;;;;;2.00;0.80;;;24.70;56.30;;;;;;4979721;28;20508;-76
2022/07/09 10:25:29;;;;;;;3.47;0.80;;;25.00;56.60;;;;;;4966965;28;20805;-75
2022/07/09 10:27:57;;;;;;;1.60;0.82;;;25.30;56.10;;;;;;4977816;28;20136;-75
2022/07/09 10:30:28;;;;;;;3.28;0.77;;;25.10;56.60;;;;;;4976036;28;20063;-74
2022/07/09 10:33:13;;;;;;;3.30;0.80;;;25.20;56.00;;;;;;4992954;28;20049;-75
2022/07/09 10:35:46;;;;;;;2.85;0.60;;;25.30;55.30;;;;;;4968997;28;20179;-75
2022/07/09 10:38:14;;;;;;;1.80;0.60;;;25.30;54.70;;;;;;4971426;28;20083;-74
2022/07/09 10:40:46;;;;;;;6.63;1.40;;;25.40;54.70;;;;;;4965089;28;20062;-74
2022/07/09 10:43:14;;;;;;;2.03;0.60;;;25.50;55.50;;;;;;4975864;28;20041;-76
2022/07/09 10:45:45;;;;;;;1.98;0.80;;;25.20;54.30;;;;;;4951073;28;20045;-75
2022/07/09 10:48:14;;;;;;;0.90;0.30;;;24.70;54.40;;;;;;4960423;28;20691;-77
2022/07/09 10:50:48;;;;;;;0.90;0.45;;;24.40;55.10;;;;;;4975734;28;20042;-76
2022/07/09 10:53:17;;;;;;;2.53;0.70;;;24.80;55.20;;;;;;4974924;28;22036;-78
2022/07/09 10:55:47;;;;;;;1.52;0.63;;;25.20;53.80;;;;;;5002810;28;20505;-76
2022/07/09 10:58:23;;;;;;;1.60;0.50;;;25.50;53.30;;;;;;4986304;28;20056;-77
2022/07/09 11:00:59;;;;;;;3.13;0.70;;;25.70;53.20;;;;;;4974681;28;20056;-77
2022/07/09 11:03:27;;;;;;;1.33;0.40;;;25.80;53.30;;;;;;4964413;28;20697;-76
2022/07/09 11:05:54;;;;;;;2.13;0.50;;;25.50;52.50;;;;;;4969118;28;20535;-76
2022/07/09 11:08:22;;;;;;;2.03;0.50;;;25.30;52.40;;;;;;4963761;28;20053;-76
2022/07/09 11:10:50;;;;;;;1.95;0.60;;;25.30;52.30;;;;;;4975822;28;20048;-76
2022/07/09 11:13:22;;;;;;;1.85;0.63;;;25.40;51.70;;;;;;4991410;28;20073;-76
2022/07/09 11:15:49;;;;;;;2.20;0.40;;;25.20;53.00;;;;;;4987574;28;20495;-77
2022/07/09 11:18:16;;;;;;;1.27;0.30;;;25.20;51.90;;;;;;4976350;28;20910;-77
2022/07/09 11:20:45;;;;;;;1.50;0.45;;;25.30;52.00;;;;;;4982512;28;20045;-77
2022/07/09 11:23:16;;;;;;;2.40;0.68;;;25.70;52.40;;;;;;4981919;28;20795;-78
2022/07/09 11:25:45;;;;;;;1.23;0.40;;;25.30;52.00;;;;;;4974618;28;20789;-76
2022/07/09 11:28:20;;;;;;;1.00;0.40;;;25.30;53.00;;;;;;5005005;28;20050;-78
2022/07/09 11:31:01;;;;;;;2.08;0.40;;;25.60;52.40;;;;;;4975969;28;20049;-77
2022/07/09 11:34:10;;;;;;;1.15;0.40;;;25.80;50.70;;;;;;4962842;28;20057;-76
2022/07/09 11:36:17;;;;;;;2.65;0.60;;;25.70;50.80;;;;;;4978303;28;20053;-76
2022/07/09 11:38:52;;;;;;;1.30;0.40;;;25.50;51.20;;;;;;4994530;28;20471;-77
2022/07/09 11:41:19;;;;;;;3.50;0.70;;;25.60;51.20;;;;;;4982743;28;20190;-76
2022/07/09 11:43:51;;;;;;;3.00;0.90;;;25.90;51.50;;;;;;4965643;28;20049;-76
2022/07/09 11:46:21;;;;;;;1.75;0.73;;;25.50;50.50;;;;;;4985717;28;21170;-75
2022/07/09 11:48:52;;;;;;;2.33;0.40;;;25.80;51.30;;;;;;4979923;28;20090;-76
2022/07/09 11:51:27;;;;;;;3.08;0.50;;;25.90;50.50;;;;;;4972841;28;20109;-76
2022/07/09 11:53:54;;;;;;;1.33;0.52;;;26.10;49.90;;;;;;4966166;28;20092;-76
2022/07/09 11:56:22;;;;;;;3.20;0.50;;;26.20;50.00;;;;;;4967301;28;20210;-77
2022/07/09 11:58:50;;;;;;;1.33;0.50;;;26.20;49.50;;;;;;4980191;28;20045;-77
2022/07/09 12:01:18;;;;;;;2.65;0.50;;;26.00;48.80;;;;;;4969704;28;20144;-77
2022/07/09 12:03:49;;;;;;;3.55;0.40;;;26.20;49.60;;;;;;4979762;28;20053;-77
2022/07/09 12:06:16;;;;;;;1.93;0.30;;;26.20;49.40;;;;;;4970569;28;20061;-76
2022/07/09 12:08:43;;;;;;;3.75;0.40;;;25.80;48.50;;;;;;4983944;28;20263;-76
2022/07/09 12:11:11;;;;;;;2.55;0.50;;;25.30;48.60;;;;;;4977895;28;22139;-76
2022/07/09 12:13:38;;;;;;;3.25;0.65;;;25.30;50.00;;;;;;4977857;28;20787;-74
2022/07/09 12:16:05;;;;;;;0.70;0.35;;;25.80;49.50;;;;;;4981109;28;20053;-76
2022/07/09 12:18:32;;;;;;;2.95;1.05;;;25.70;48.80;;;;;;4966016;28;21990;-76
2022/07/09 12:21:00;;;;;;;1.85;0.45;;;25.70;48.70;;;;;;5002613;28;20405;-78
2022/07/09 12:23:27;;;;;;;3.00;1.00;;;26.10;49.10;;;;;;4994241;28;21903;-77
2022/07/09 12:25:54;;;;;;;3.10;0.57;;;26.20;47.70;;;;;;5005741;28;20117;-76
2022/07/09 12:28:22;;;;;;;1.95;0.50;;;26.20;47.50;;;;;;4999633;28;20049;-76
2022/07/09 12:30:49;;;;;;;1.35;0.52;;;26.10;47.00;;;;;;4983367;28;20760;-76
2022/07/09 12:33:16;;;;;;;2.85;0.70;;;26.10;48.40;;;;;;4995510;28;20053;-77
2022/07/09 12:35:44;;;;;;;1.10;0.43;;;26.30;47.40;;;;;;4986242;28;20135;-77
2022/07/09 12:38:11;;;;;;;2.70;0.50;;;26.40;47.60;;;;;;4990661;28;20052;-77
2022/07/09 12:40:38;;;;;;;2.67;0.43;;;26.20;47.40;;;;;;4980361;28;20060;-77
2022/07/09 12:43:05;;;;;;;1.75;0.40;;;25.80;47.70;;;;;;4971066;28;20065;-77
2022/07/09 12:45:32;;;;;;;0.55;0.20;;;25.90;47.70;;;;;;4979640;28;20054;-76
2022/07/09 12:47:59;;;;;;;1.90;0.32;;;26.20;47.10;;;;;;4993775;28;22109;-77
2022/07/09 12:50:26;;;;;;;1.20;0.40;;;26.40;47.40;;;;;;4962812;28;20053;-77
2022/07/09 12:52:53;;;;;;;2.38;0.50;;;26.50;47.50;;;;;;5021763;28;20037;-76